createdAt,value
2018-08-31T00:00:31.169Z,43.9
2018-08-31T00:01:31.132Z,43.9
2018-08-31T00:02:29.684Z,43.9
2018-08-31T00:03:27.338Z,43.9
2018-08-31T00:04:29.864Z,43.9
2018-08-31T00:05:33.134Z,43.9
2018-08-31T00:06:30.599Z,43.9
2018-08-31T00:07:30.337Z,43.9
2018-08-31T00:08:35.598Z,43.9
2018-08-31T00:09:40.838Z,43.9
2018-08-31T00:10:39.607Z,44
2018-08-31T00:11:53.012Z,44
2018-08-31T00:12:56.789Z,44
2018-08-31T00:13:55.689Z,44
2018-08-31T00:14:52.059Z,44
2018-08-31T00:15:56.308Z,44
2018-08-31T00:16:53.945Z,44
2018-08-31T00:17:53.157Z,44
2018-08-31T00:18:51.268Z,44
2018-08-31T00:19:55.307Z,44
2018-08-31T00:20:56.542Z,44
2018-08-31T00:21:52.884Z,44
2018-08-31T00:23:02.837Z,44.1
2018-08-31T00:24:01.264Z,44.1
2018-08-31T00:25:00.937Z,44.1
2018-08-31T00:25:58.661Z,44.1
2018-08-31T00:27:01.585Z,44.1
2018-08-31T00:28:01.885Z,44.1
2018-08-31T00:29:00.536Z,44.1
2018-08-31T00:29:59.510Z,44.1
2018-08-31T00:30:58.239Z,44.1
2018-08-31T00:31:56.006Z,44.2
2018-08-31T00:33:10.560Z,44.2
2018-08-31T00:34:11.757Z,44.1
2018-08-31T00:35:09.824Z,44.2
2018-08-31T00:36:12.838Z,44.2
2018-08-31T00:37:12.080Z,44.2
2018-08-31T00:38:16.902Z,44.1
2018-08-31T00:39:22.482Z,44.1
2018-08-31T00:40:21.452Z,44.1
2018-08-31T00:41:16.679Z,44.2
2018-08-31T00:42:16.547Z,44.2
2018-08-31T00:43:32.077Z,44.2
2018-08-31T00:44:26.646Z,44.2
2018-08-31T00:45:26.648Z,44.2
2018-08-31T00:46:26.876Z,44.2
2018-08-31T00:47:24.619Z,44.2
2018-08-31T00:48:27.606Z,44.2
2018-08-31T00:49:27.381Z,44.3
2018-08-31T00:50:25.974Z,44.2
2018-08-31T00:51:26.617Z,44.2
2018-08-31T00:52:24.533Z,44.3
2018-08-31T00:53:26.614Z,44.3
2018-08-31T00:54:28.252Z,44.3
2018-08-31T00:55:43.538Z,44.3
2018-08-31T00:56:39.216Z,44.3
2018-08-31T00:57:39.073Z,44.3
2018-08-31T00:58:39.517Z,44.3
2018-08-31T00:59:43.215Z,44.3
2018-08-31T01:00:43.037Z,44.3
2018-08-31T01:01:41.760Z,44.3
2018-08-31T01:02:50.126Z,44.3
2018-08-31T01:03:48.510Z,44.3
2018-08-31T01:04:43.714Z,44.3
2018-08-31T01:06:06.058Z,44.3
2018-08-31T01:07:03.558Z,44.3
2018-08-31T01:08:01.699Z,44.4
2018-08-31T01:09:00.296Z,44.4
2018-08-31T01:10:02.760Z,44.3
2018-08-31T01:10:59.162Z,44.4
2018-08-31T01:12:00.680Z,44.4
2018-08-31T01:12:58.604Z,44.4
2018-08-31T01:14:03.154Z,44.4
2018-08-31T01:14:58.403Z,44.4
2018-08-31T01:15:56.136Z,44.4
2018-08-31T01:17:12.898Z,44.4
2018-08-31T01:18:13.992Z,44.4
2018-08-31T01:19:13.561Z,44.4
2018-08-31T01:20:12.643Z,44.4
2018-08-31T01:21:23.387Z,44.4
2018-08-31T01:22:22.979Z,44.4
2018-08-31T01:23:21.245Z,44.5
2018-08-31T01:24:21.981Z,44.5
2018-08-31T01:25:27.132Z,44.4
2018-08-31T01:26:24.600Z,44.4
2018-08-31T01:27:32.075Z,44.4
2018-08-31T01:28:27.126Z,44.4
2018-08-31T01:29:27.122Z,44.4
2018-08-31T01:30:45.851Z,44.4
2018-08-31T01:31:34.710Z,44.4
2018-08-31T01:32:42.410Z,44.4
2018-08-31T01:33:42.126Z,44.4
2018-08-31T01:34:45.472Z,44.4
2018-08-31T01:35:43.410Z,44.5
2018-08-31T01:36:45.183Z,44.5
2018-08-31T01:37:43.172Z,44.5
2018-08-31T01:38:42.025Z,44.5
2018-08-31T01:39:40.849Z,44.5
2018-08-31T01:40:37.094Z,44.5
2018-08-31T01:41:39.385Z,44.5
2018-08-31T01:42:34.231Z,44.5
2018-08-31T01:43:49.822Z,44.5
2018-08-31T01:44:45.147Z,44.6
2018-08-31T01:45:43.676Z,44.5
2018-08-31T01:46:41.647Z,44.5
2018-08-31T01:47:40.616Z,44.5
2018-08-31T01:48:41.083Z,44.5
2018-08-31T01:49:40.987Z,44.5
2018-08-31T01:50:42.683Z,44.5
2018-08-31T01:51:41.703Z,44.5
2018-08-31T01:52:45.590Z,44.5
2018-08-31T01:53:47.406Z,44.5
2018-08-31T01:54:48.338Z,44.5
2018-08-31T01:55:46.773Z,44.6
2018-08-31T01:56:49.354Z,44.6
2018-08-31T01:57:51.433Z,44.6
2018-08-31T01:58:50.034Z,44.6
2018-08-31T01:59:49.422Z,44.6
2018-08-31T02:00:46.525Z,44.6
2018-08-31T02:02:07.506Z,44.6
2018-08-31T02:02:53.590Z,44.6
2018-08-31T02:03:52.965Z,44.6
2018-08-31T02:04:50.462Z,44.6
2018-08-31T02:05:52.305Z,44.6
2018-08-31T02:06:58.588Z,44.6
2018-08-31T02:07:56.518Z,44.6
2018-08-31T02:09:00.205Z,44.6
2018-08-31T02:10:16.234Z,44.6
2018-08-31T02:11:15.729Z,44.6
2018-08-31T02:12:33.445Z,44.6
2018-08-31T02:13:33.440Z,44.6
2018-08-31T02:14:31.965Z,44.6
2018-08-31T02:15:38.980Z,44.6
2018-08-31T02:16:37.205Z,44.6
2018-08-31T02:17:51.366Z,44.6
2018-08-31T02:18:57.535Z,44.6
2018-08-31T02:19:55.442Z,44.6
2018-08-31T02:20:53.060Z,44.6
2018-08-31T02:21:57.543Z,44.6
2018-08-31T02:22:55.642Z,44.6
2018-08-31T02:24:13.780Z,44.6
2018-08-31T02:25:14.687Z,44.6
2018-08-31T02:26:20.131Z,44.6
2018-08-31T02:27:35.817Z,44.6
2018-08-31T02:28:43.145Z,44.6
2018-08-31T02:29:44.781Z,44.7
2018-08-31T02:30:42.580Z,44.6
2018-08-31T02:31:40.277Z,44.7
2018-08-31T02:32:39.431Z,44.7
2018-08-31T02:33:43.374Z,44.7
2018-08-31T02:34:46.785Z,44.7
2018-08-31T02:35:58.823Z,44.7
2018-08-31T02:36:57.035Z,44.7
2018-08-31T02:37:59.522Z,44.7
2018-08-31T02:39:00.768Z,44.7
2018-08-31T02:40:01.677Z,44.7
2018-08-31T02:40:59.248Z,44.7
2018-08-31T02:41:56.797Z,44.7
2018-08-31T02:42:54.962Z,44.7
2018-08-31T02:43:57.445Z,44.7
2018-08-31T02:44:59.215Z,44.7
2018-08-31T02:46:15.523Z,44.7
2018-08-31T02:47:09.910Z,44.8
2018-08-31T02:48:10.261Z,44.8
2018-08-31T02:49:15.176Z,44.8
2018-08-31T02:50:12.893Z,44.8
2018-08-31T02:51:12.816Z,44.8
2018-08-31T02:52:15.756Z,44.8
2018-08-31T02:53:10.643Z,44.8
2018-08-31T02:54:12.675Z,44.8
2018-08-31T02:55:07.304Z,44.7
2018-08-31T02:56:24.767Z,44.8
2018-08-31T02:57:21.148Z,44.8
2018-08-31T02:58:22.739Z,44.8
2018-08-31T02:59:33.561Z,44.8
2018-08-31T03:00:31.427Z,44.8
2018-08-31T03:01:29.150Z,44.8
2018-08-31T03:02:26.835Z,44.8
2018-08-31T03:03:25.000Z,44.8
2018-08-31T03:04:22.842Z,44.8
2018-08-31T03:05:27.856Z,44.8
2018-08-31T03:06:26.515Z,44.9
2018-08-31T03:07:24.435Z,44.8
2018-08-31T03:08:37.459Z,44.9
2018-08-31T03:09:34.272Z,44.9
2018-08-31T03:10:37.958Z,44.9
2018-08-31T03:11:36.910Z,44.9
2018-08-31T03:12:34.452Z,44.9
2018-08-31T03:13:35.965Z,44.9
2018-08-31T03:14:33.984Z,44.9
2018-08-31T03:15:34.533Z,44.9
2018-08-31T03:16:32.409Z,44.9
2018-08-31T03:17:32.232Z,44.9
2018-08-31T03:18:34.752Z,44.9
2018-08-31T03:19:34.014Z,44.9
2018-08-31T03:20:34.922Z,44.9
2018-08-31T03:21:33.009Z,44.9
2018-08-31T03:22:46.304Z,44.9
2018-08-31T03:23:44.384Z,44.8
2018-08-31T03:24:42.292Z,44.9
2018-08-31T03:25:40.824Z,45
2018-08-31T03:26:42.816Z,44.8
2018-08-31T03:27:42.149Z,44.9
2018-08-31T03:28:57.812Z,44.9
2018-08-31T03:30:00.164Z,45
2018-08-31T03:30:58.209Z,44.9
2018-08-31T03:31:56.561Z,44.8
2018-08-31T03:32:58.750Z,44.9
2018-08-31T03:33:53.525Z,44.9
2018-08-31T03:35:10.210Z,44.8
2018-08-31T03:36:10.271Z,45
2018-08-31T03:37:10.454Z,45
2018-08-31T03:38:09.580Z,44.9
2018-08-31T03:39:10.638Z,44.9
2018-08-31T03:40:08.496Z,44.8
2018-08-31T03:41:11.399Z,44.9
2018-08-31T03:42:10.802Z,44.9
2018-08-31T03:43:09.289Z,44.9
2018-08-31T03:44:03.498Z,44.9
2018-08-31T03:45:17.948Z,44.9
2018-08-31T03:46:15.571Z,44.9
2018-08-31T03:47:15.229Z,44.9
2018-08-31T03:48:12.801Z,44.9
2018-08-31T03:49:10.971Z,44.9
2018-08-31T03:50:13.265Z,44.9
2018-08-31T03:51:13.044Z,44.9
2018-08-31T03:52:13.120Z,44.9
2018-08-31T03:53:13.399Z,44.9
2018-08-31T03:54:13.242Z,44.9
2018-08-31T03:55:11.675Z,44.9
2018-08-31T03:56:16.711Z,44.9
2018-08-31T03:57:29.443Z,44.9
2018-08-31T03:58:31.622Z,44.9
2018-08-31T03:59:29.675Z,45
2018-08-31T04:00:27.570Z,45
2018-08-31T04:01:33.023Z,45
2018-08-31T04:02:38.605Z,45
2018-08-31T04:03:36.819Z,45
2018-08-31T04:04:41.595Z,45
2018-08-31T04:05:42.688Z,45
2018-08-31T04:06:41.018Z,45
2018-08-31T04:07:41.423Z,45
2018-08-31T04:08:39.399Z,45
2018-08-31T04:09:40.074Z,45
2018-08-31T04:10:55.268Z,45
2018-08-31T04:11:50.563Z,45
2018-08-31T04:12:54.164Z,45
2018-08-31T04:13:58.604Z,45
2018-08-31T04:14:57.064Z,45
2018-08-31T04:15:57.873Z,45
2018-08-31T04:16:56.286Z,45
2018-08-31T04:17:56.620Z,45
2018-08-31T04:19:02.047Z,45
2018-08-31T04:20:02.123Z,45
2018-08-31T04:21:04.787Z,45
2018-08-31T04:22:05.799Z,45
2018-08-31T04:23:00.609Z,45
2018-08-31T04:24:12.586Z,45
2018-08-31T04:25:08.303Z,45
2018-08-31T04:26:12.921Z,45
2018-08-31T04:27:10.950Z,45.1
2018-08-31T04:28:15.919Z,45.1
2018-08-31T04:29:15.982Z,45.1
2018-08-31T04:30:16.524Z,45.1
2018-08-31T04:31:12.774Z,45.1
2018-08-31T04:32:16.237Z,45.1
2018-08-31T04:33:16.357Z,45.1
2018-08-31T04:34:14.779Z,45.1
2018-08-31T04:35:30.484Z,45.1
2018-08-31T04:36:24.565Z,45.1
2018-08-31T04:37:23.158Z,45.1
2018-08-31T04:38:28.229Z,45.1
2018-08-31T04:39:30.559Z,45.1
2018-08-31T04:40:28.145Z,45.1
2018-08-31T04:41:26.505Z,45.1
2018-08-31T04:42:24.018Z,45
2018-08-31T04:43:19.818Z,45.1
2018-08-31T04:44:23.023Z,45.2
2018-08-31T04:45:26.425Z,45.1
2018-08-31T04:46:24.025Z,45.1
2018-08-31T04:47:22.587Z,45
2018-08-31T04:48:43.746Z,45
2018-08-31T04:49:34.148Z,45
2018-08-31T04:50:34.181Z,45
2018-08-31T04:51:36.536Z,45.1
2018-08-31T04:52:45.955Z,45.1
2018-08-31T04:53:45.659Z,45.1
2018-08-31T04:54:53.082Z,45.2
2018-08-31T04:55:56.912Z,45.1
2018-08-31T04:56:56.440Z,45.1
2018-08-31T04:57:50.932Z,45.1
2018-08-31T04:59:07.791Z,45.1
2018-08-31T05:00:02.644Z,45.1
2018-08-31T05:01:07.743Z,45.1
2018-08-31T05:02:06.950Z,45.1
2018-08-31T05:03:04.689Z,45.1
2018-08-31T05:04:07.002Z,45.1
2018-08-31T05:05:12.302Z,45.1
2018-08-31T05:06:12.420Z,45.1
2018-08-31T05:07:13.477Z,45.1
2018-08-31T05:08:14.803Z,45.1
2018-08-31T05:09:34.246Z,45.1
2018-08-31T05:10:32.224Z,45.1
2018-08-31T05:11:30.295Z,45.1
2018-08-31T05:12:27.986Z,45.1
2018-08-31T05:13:26.982Z,45.1
2018-08-31T05:14:22.567Z,45.1
2018-08-31T05:15:25.452Z,45.1
2018-08-31T05:16:26.697Z,45.1
2018-08-31T05:17:29.866Z,45.1
2018-08-31T05:18:29.197Z,45.1
2018-08-31T05:19:27.166Z,45.2
2018-08-31T05:20:27.895Z,45.2
2018-08-31T05:21:25.812Z,45.2
2018-08-31T05:22:23.767Z,45.2
2018-08-31T05:23:33.324Z,45.2
2018-08-31T05:24:32.431Z,45.2
2018-08-31T05:25:33.034Z,45.2
2018-08-31T05:26:31.596Z,45.2
2018-08-31T05:27:31.410Z,45.2
2018-08-31T05:28:29.515Z,45.2
2018-08-31T05:29:28.854Z,45.3
2018-08-31T05:30:26.265Z,45.2
2018-08-31T05:31:23.898Z,45.2
2018-08-31T05:32:22.781Z,45.2
2018-08-31T05:33:20.772Z,45.2
2018-08-31T05:34:18.765Z,45.2
2018-08-31T05:35:16.890Z,45.2
2018-08-31T05:36:28.533Z,45.2
2018-08-31T05:37:25.597Z,45.2
2018-08-31T05:38:23.735Z,45.3
2018-08-31T05:39:25.701Z,45.3
2018-08-31T05:40:31.359Z,45.3
2018-08-31T05:41:26.689Z,45.3
2018-08-31T05:42:26.861Z,45.3
2018-08-31T05:43:36.348Z,45.3
2018-08-31T05:44:38.433Z,45.3
2018-08-31T05:45:37.644Z,45.3
2018-08-31T05:46:38.587Z,45.3
2018-08-31T05:47:39.045Z,45.3
2018-08-31T05:48:53.280Z,45.3
2018-08-31T05:49:56.299Z,45.4
2018-08-31T05:50:55.431Z,45.5
2018-08-31T05:51:55.214Z,45.4
2018-08-31T05:53:04.894Z,45.4
2018-08-31T05:54:03.501Z,45.4
2018-08-31T05:55:02.253Z,45.5
2018-08-31T05:55:57.320Z,45.6
2018-08-31T05:57:06.668Z,45.6
2018-08-31T05:58:02.341Z,45.6
2018-08-31T05:59:10.692Z,45.7
2018-08-31T06:00:08.226Z,45.8
2018-08-31T06:01:09.395Z,45.9
2018-08-31T06:02:16.558Z,46
2018-08-31T06:03:15.032Z,46.1
2018-08-31T06:04:26.684Z,46.1
2018-08-31T06:05:21.393Z,46.2
2018-08-31T06:06:20.969Z,46.2
2018-08-31T06:07:19.568Z,46.2
2018-08-31T06:08:23.296Z,46.1
2018-08-31T06:09:21.779Z,46
2018-08-31T06:10:22.805Z,45.9
2018-08-31T06:11:22.171Z,45.9
2018-08-31T06:12:20.797Z,46
2018-08-31T06:13:18.893Z,46
2018-08-31T06:14:16.749Z,46
2018-08-31T06:15:22.707Z,45.8
2018-08-31T06:16:18.157Z,45.7
2018-08-31T06:17:15.834Z,45.7
2018-08-31T06:18:29.297Z,45.6
2018-08-31T06:19:23.831Z,45.6
2018-08-31T06:20:26.307Z,45.7
2018-08-31T06:20:51.586Z,45.7
2018-08-31T06:21:51.129Z,45.7
2018-08-31T06:22:59.930Z,45.8
2018-08-31T06:23:59.754Z,45.8
2018-08-31T06:25:02.122Z,45.7
2018-08-31T06:25:57.675Z,45.8
2018-08-31T06:26:58.161Z,45.7
2018-08-31T06:27:58.024Z,45.7
2018-08-31T06:28:55.893Z,45.7
2018-08-31T06:29:54.431Z,45.6
2018-08-31T06:30:57.248Z,45.7
2018-08-31T06:32:02.736Z,45.7
2018-08-31T06:33:20.019Z,45.7
2018-08-31T06:34:15.425Z,45.8
2018-08-31T06:35:14.960Z,45.8
2018-08-31T06:36:16.833Z,45.7
2018-08-31T06:37:18.345Z,45.7
2018-08-31T06:38:16.748Z,45.6
2018-08-31T06:39:18.719Z,45.6
2018-08-31T06:40:21.398Z,45.6
2018-08-31T06:41:25.236Z,45.6
2018-08-31T06:42:25.176Z,45.5
2018-08-31T06:43:31.303Z,45.5
2018-08-31T06:44:28.654Z,45.5
2018-08-31T06:45:25.916Z,45.6
2018-08-31T06:46:38.733Z,45.6
2018-08-31T06:47:33.428Z,45.6
2018-08-31T06:48:35.333Z,45.5
2018-08-31T06:49:32.834Z,45.6
2018-08-31T06:50:40.304Z,45.5
2018-08-31T06:51:41.236Z,45.5
2018-08-31T06:52:40.777Z,45.5
2018-08-31T06:53:40.558Z,45.5
2018-08-31T06:54:39.293Z,45.5
2018-08-31T06:55:34.071Z,45.5
2018-08-31T06:56:35.878Z,45.5
2018-08-31T06:57:36.981Z,45.4
2018-08-31T06:58:52.433Z,45.4
2018-08-31T06:59:47.211Z,45.5
2018-08-31T07:00:46.576Z,45.4
2018-08-31T07:01:50.582Z,45.4
2018-08-31T07:02:50.698Z,45.4
2018-08-31T07:03:49.665Z,45.4
2018-08-31T07:04:49.381Z,45.4
2018-08-31T07:05:46.714Z,45.4
2018-08-31T07:06:56.037Z,45.4
2018-08-31T07:07:55.804Z,45.4
2018-08-31T07:09:07.443Z,45.3
2018-08-31T07:10:03.570Z,45.3
2018-08-31T07:11:05.942Z,45.3
2018-08-31T07:12:03.944Z,45.3
2018-08-31T07:13:04.244Z,45.3
2018-08-31T07:14:07.233Z,45.3
2018-08-31T07:15:05.295Z,45.3
2018-08-31T07:16:03.539Z,45.3
2018-08-31T07:17:01.260Z,45.3
2018-08-31T07:17:57.950Z,45.2
2018-08-31T07:19:07.785Z,45.3
2018-08-31T07:20:08.073Z,45.2
2018-08-31T07:21:06.509Z,45.2
2018-08-31T07:22:04.513Z,45.2
2018-08-31T07:23:04.526Z,45.2
2018-08-31T07:24:05.399Z,45.2
2018-08-31T07:25:07.333Z,45.2
2018-08-31T07:26:14.033Z,45.2
2018-08-31T07:27:25.544Z,45.2
2018-08-31T07:28:23.916Z,45.2
2018-08-31T07:29:22.487Z,45.2
2018-08-31T07:30:20.708Z,45.1
2018-08-31T07:31:23.679Z,45.1
2018-08-31T07:32:19.094Z,45.1
2018-08-31T07:33:16.738Z,45.1
2018-08-31T07:34:14.594Z,45.1
2018-08-31T07:35:14.386Z,45.1
2018-08-31T07:36:14.251Z,45.1
2018-08-31T07:37:09.029Z,45.1
2018-08-31T07:38:06.379Z,45.1
2018-08-31T07:39:08.575Z,45.1
2018-08-31T07:40:28.936Z,45
2018-08-31T07:41:23.077Z,45
2018-08-31T07:42:25.938Z,45
2018-08-31T07:43:27.771Z,45.1
2018-08-31T07:44:26.522Z,45
2018-08-31T07:45:24.633Z,45.1
2018-08-31T07:46:26.521Z,45.1
2018-08-31T07:47:24.322Z,45.1
2018-08-31T07:48:19.989Z,45.1
2018-08-31T07:49:21.014Z,45.1
2018-08-31T07:50:20.820Z,45.1
2018-08-31T07:51:25.439Z,45.3
2018-08-31T07:52:20.733Z,45.6
2018-08-31T07:53:41.012Z,45.7
2018-08-31T07:54:35.635Z,45.8
2018-08-31T07:55:44.979Z,45.7
2018-08-31T07:56:45.806Z,45.5
2018-08-31T07:57:48.895Z,45.5
2018-08-31T07:58:49.136Z,45.4
2018-08-31T07:59:47.324Z,45.4
2018-08-31T08:00:42.561Z,45.3
2018-08-31T08:01:44.849Z,45.4
2018-08-31T08:02:57.007Z,45.4
2018-08-31T08:03:55.166Z,45.8
2018-08-31T08:04:55.281Z,46
2018-08-31T08:05:54.330Z,45.9
2018-08-31T08:06:55.063Z,46
2018-08-31T08:07:55.771Z,46.1
2018-08-31T08:08:56.984Z,46.2
2018-08-31T08:09:56.224Z,46.1
2018-08-31T08:11:00.875Z,46.2
2018-08-31T08:12:05.609Z,46.2
2018-08-31T08:13:04.541Z,43.7
2018-08-31T08:14:22.144Z,43.5
2018-08-31T08:15:23.473Z,43.2
2018-08-31T08:16:24.274Z,42.5
2018-08-31T08:17:22.821Z,42.8
2018-08-31T08:18:20.146Z,43.5
2018-08-31T08:19:21.545Z,44.4
2018-08-31T08:20:20.538Z,45.4
2018-08-31T08:21:20.833Z,45.3
2018-08-31T08:22:26.221Z,45.9
2018-08-31T08:23:30.115Z,46.7
2018-08-31T08:24:42.944Z,47.5
2018-08-31T08:25:37.069Z,48.4
2018-08-31T08:26:38.527Z,48.9
2018-08-31T08:27:41.651Z,49
2018-08-31T08:28:41.730Z,49
2018-08-31T08:29:41.563Z,48.9
2018-08-31T08:30:42.313Z,49.6
2018-08-31T08:31:38.845Z,49.2
2018-08-31T08:32:45.019Z,49.3
2018-08-31T08:33:44.689Z,49.2
2018-08-31T08:34:41.252Z,49.5
2018-08-31T08:35:53.296Z,49.3
2018-08-31T08:36:45.738Z,50.3
2018-08-31T08:37:48.666Z,50.1
2018-08-31T08:38:47.220Z,50.1
2018-08-31T08:39:49.666Z,50.8
2018-08-31T08:40:53.225Z,49.8
2018-08-31T08:41:51.512Z,51.3
2018-08-31T08:42:49.349Z,50.9
2018-08-31T08:43:51.560Z,51.1
2018-08-31T08:44:49.045Z,50.7
2018-08-31T08:45:46.389Z,51.2
2018-08-31T08:46:40.766Z,50.9
2018-08-31T08:47:38.537Z,51.3
2018-08-31T08:48:56.644Z,52.1
2018-08-31T08:49:51.730Z,50.5
2018-08-31T08:50:51.867Z,50.7
2018-08-31T08:51:52.813Z,50.2
2018-08-31T08:52:54.437Z,50.3
2018-08-31T08:54:00.590Z,50.4
2018-08-31T08:54:58.520Z,51.2
2018-08-31T08:55:59.912Z,49.9
2018-08-31T08:56:57.858Z,49.9
2018-08-31T08:57:56.331Z,50.4
2018-08-31T08:58:51.747Z,49.9
2018-08-31T08:59:53.125Z,50
2018-08-31T09:00:53.775Z,50.2
2018-08-31T09:01:52.097Z,49.7
2018-08-31T09:02:47.275Z,49.7
2018-08-31T09:03:45.014Z,49.8
2018-08-31T09:05:04.111Z,49.8
2018-08-31T09:05:59.479Z,49.8
2018-08-31T09:06:59.010Z,49.8
2018-08-31T09:07:58.243Z,49.8
2018-08-31T09:08:55.942Z,49.7
2018-08-31T09:09:50.630Z,49.7
2018-08-31T09:10:51.260Z,49.8
2018-08-31T09:11:50.825Z,49.7
2018-08-31T09:12:56.224Z,49.8
2018-08-31T09:13:55.771Z,49.7
2018-08-31T09:14:54.534Z,49.7
2018-08-31T09:16:00.826Z,49.7
2018-08-31T09:17:04.499Z,49.7
2018-08-31T09:18:07.941Z,49.1
2018-08-31T09:19:06.640Z,48.8
2018-08-31T09:20:17.907Z,48.9
2018-08-31T09:21:14.640Z,49.1
2018-08-31T09:22:13.481Z,49.9
2018-08-31T09:23:11.522Z,48.4
2018-08-31T09:24:14.398Z,48.3
2018-08-31T09:25:09.962Z,48.3
2018-08-31T09:26:11.222Z,49
2018-08-31T09:27:10.851Z,49.2
2018-08-31T09:28:13.755Z,49.2
2018-08-31T09:29:13.552Z,49.2
2018-08-31T09:30:12.779Z,48.5
2018-08-31T09:31:11.985Z,49
2018-08-31T09:32:09.680Z,48.6
2018-08-31T09:33:19.263Z,48.6
2018-08-31T09:34:17.462Z,48.7
2018-08-31T09:35:17.474Z,48.8
2018-08-31T09:36:16.671Z,48.5
2018-08-31T09:37:26.281Z,48.8
2018-08-31T09:38:26.211Z,48.8
2018-08-31T09:39:26.696Z,48.8
2018-08-31T09:40:30.924Z,48.8
2018-08-31T09:41:31.577Z,49.3
2018-08-31T09:42:33.036Z,49.7
2018-08-31T09:43:34.212Z,49.6
2018-08-31T09:44:31.806Z,50.5
2018-08-31T09:45:32.441Z,50.7
2018-08-31T09:46:34.204Z,49.5
2018-08-31T09:47:33.934Z,49.7
2018-08-31T09:48:49.564Z,48.5
2018-08-31T09:49:47.356Z,48.8
2018-08-31T09:50:45.304Z,48.1
2018-08-31T09:51:51.132Z,47.8
2018-08-31T09:52:49.927Z,47.9
2018-08-31T09:53:49.188Z,48.6
2018-08-31T09:54:50.387Z,48.5
2018-08-31T09:55:48.334Z,46.7
2018-08-31T09:56:56.906Z,46.6
2018-08-31T09:57:55.788Z,45.8
2018-08-31T09:58:53.948Z,45.5
2018-08-31T09:59:51.716Z,45.8
2018-08-31T10:00:52.602Z,45.3
2018-08-31T10:01:50.137Z,45.4
2018-08-31T10:02:47.917Z,45.8
2018-08-31T10:03:58.705Z,45.2
2018-08-31T10:04:56.220Z,45.4
2018-08-31T10:06:00.796Z,45.4
2018-08-31T10:06:59.656Z,45.6
2018-08-31T10:07:57.874Z,45.8
2018-08-31T10:08:55.564Z,45.7
2018-08-31T10:09:50.360Z,46.3
2018-08-31T10:10:51.143Z,46.3
2018-08-31T10:11:52.444Z,46.9
2018-08-31T10:12:55.166Z,46.1
2018-08-31T10:13:57.379Z,46
2018-08-31T10:14:53.378Z,46.4
2018-08-31T10:16:09.219Z,46
2018-08-31T10:17:03.856Z,46.2
2018-08-31T10:18:05.989Z,46.5
2018-08-31T10:19:03.796Z,45.7
2018-08-31T10:20:01.550Z,46.3
2018-08-31T10:21:02.377Z,46.6
2018-08-31T10:22:00.358Z,45.8
2018-08-31T10:23:01.076Z,45.1
2018-08-31T10:23:59.333Z,44.9
2018-08-31T10:24:57.514Z,44.8
2018-08-31T10:25:59.867Z,43.6
2018-08-31T10:26:58.510Z,43.5
2018-08-31T10:27:57.167Z,42.6
2018-08-31T10:29:09.197Z,42.6
2018-08-31T10:30:04.140Z,41.6
2018-08-31T10:31:02.794Z,42.2
2018-08-31T10:32:05.225Z,42.8
2018-08-31T10:33:04.318Z,43.3
2018-08-31T10:34:03.006Z,43.2
2018-08-31T10:35:00.670Z,43.3
2018-08-31T10:36:00.322Z,43.2
2018-08-31T10:37:03.086Z,43.4
2018-08-31T10:38:03.693Z,43.1
2018-08-31T10:39:07.165Z,43.4
2018-08-31T10:40:04.128Z,42.5
2018-08-31T10:41:23.803Z,43.1
2018-08-31T10:42:19.467Z,42.4
2018-08-31T10:43:21.743Z,42.6
2018-08-31T10:44:34.214Z,42.7
2018-08-31T10:45:34.760Z,43.4
2018-08-31T10:46:33.503Z,43.4
2018-08-31T10:47:35.308Z,43.1
2018-08-31T10:48:40.377Z,42.8
2018-08-31T10:49:39.445Z,42
2018-08-31T10:50:39.661Z,42.5
2018-08-31T10:51:39.341Z,42.1
2018-08-31T10:52:37.678Z,42.2
2018-08-31T10:53:51.777Z,41.9
2018-08-31T10:54:48.678Z,42.8
2018-08-31T10:55:49.525Z,43.2
2018-08-31T10:56:49.300Z,43.1
2018-08-31T10:57:50.245Z,42.6
2018-08-31T10:58:49.031Z,42.8
2018-08-31T10:59:49.382Z,43
2018-08-31T11:00:48.685Z,43.4
2018-08-31T11:01:46.362Z,42.9
2018-08-31T11:02:44.935Z,43
2018-08-31T11:03:40.797Z,42.6
2018-08-31T11:04:54.152Z,43.2
2018-08-31T11:05:51.047Z,42.6
2018-08-31T11:06:48.833Z,43.3
2018-08-31T11:07:47.558Z,43.2
2018-08-31T11:08:46.154Z,43.3
2018-08-31T11:09:46.640Z,43.3
2018-08-31T11:10:41.715Z,43.3
2018-08-31T11:11:44.818Z,43.4
2018-08-31T11:12:44.150Z,43.3
2018-08-31T11:13:44.783Z,43.6
2018-08-31T11:14:42.347Z,43.1
2018-08-31T11:15:40.381Z,42.1
2018-08-31T11:16:38.444Z,41
2018-08-31T11:17:36.876Z,40.7
2018-08-31T11:18:41.934Z,41.4
2018-08-31T11:19:42.975Z,41.2
2018-08-31T11:20:41.133Z,41.5
2018-08-31T11:21:36.888Z,42.1
2018-08-31T11:22:52.117Z,42.7
2018-08-31T11:23:49.629Z,42.3
2018-08-31T11:24:50.857Z,42.4
2018-08-31T11:25:48.917Z,42.8
2018-08-31T11:26:47.751Z,42.6
2018-08-31T11:27:46.792Z,42.7
2018-08-31T11:28:45.772Z,42.5
2018-08-31T11:29:47.176Z,42.6
2018-08-31T11:30:46.009Z,42.2
2018-08-31T11:31:44.898Z,41.4
2018-08-31T11:32:49.775Z,40.9
2018-08-31T11:34:02.675Z,41
2018-08-31T11:35:00.437Z,41
2018-08-31T11:35:58.202Z,39.4
2018-08-31T11:37:01.964Z,39.6
2018-08-31T11:38:01.598Z,38.1
2018-08-31T11:39:00.855Z,38.4
2018-08-31T11:39:56.347Z,37.4
2018-08-31T11:40:57.719Z,38.1
2018-08-31T11:41:59.936Z,38.4
2018-08-31T11:43:00.089Z,38.6
2018-08-31T11:43:58.703Z,38.4
2018-08-31T11:45:08.072Z,38.1
2018-08-31T11:46:04.309Z,38.8
2018-08-31T11:47:09.487Z,39
2018-08-31T11:48:10.382Z,38.9
2018-08-31T11:49:05.177Z,39.4
2018-08-31T11:50:03.876Z,39.4
2018-08-31T11:51:18.063Z,40.4
2018-08-31T11:52:14.070Z,40.2
2018-08-31T11:53:12.553Z,39.7
2018-08-31T11:54:20.653Z,40.6
2018-08-31T11:55:23.649Z,40.7
2018-08-31T11:56:24.771Z,40.4
2018-08-31T11:57:22.731Z,40.1
2018-08-31T11:58:28.538Z,40.3
2018-08-31T11:59:30.376Z,41.1
2018-08-31T12:00:28.084Z,41.3
2018-08-31T12:01:23.244Z,41.1
2018-08-31T12:02:21.975Z,41.3
2018-08-31T12:03:38.812Z,41.9
2018-08-31T12:04:37.630Z,41.5
2018-08-31T12:05:45.123Z,41.4
2018-08-31T12:06:43.350Z,41.2
2018-08-31T12:07:41.199Z,42.4
2018-08-31T12:08:41.724Z,42.1
2018-08-31T12:09:40.196Z,41.5
2018-08-31T12:10:50.023Z,41.2
2018-08-31T12:11:48.138Z,41.4
2018-08-31T12:12:45.932Z,41.1
2018-08-31T12:13:41.334Z,41.1
2018-08-31T12:14:39.914Z,41
2018-08-31T12:15:38.921Z,41
2018-08-31T12:16:49.090Z,40.9
2018-08-31T12:17:46.487Z,40.9
2018-08-31T12:18:45.799Z,39.8
2018-08-31T12:19:44.883Z,40.4
2018-08-31T12:20:44.581Z,41
2018-08-31T12:21:43.508Z,40.6
2018-08-31T12:22:43.432Z,40.7
2018-08-31T12:23:43.752Z,40.6
2018-08-31T12:24:49.913Z,40.6
2018-08-31T12:25:50.890Z,41.1
2018-08-31T12:26:48.927Z,41.3
2018-08-31T12:27:51.699Z,41.2
2018-08-31T12:29:05.527Z,40.4
2018-08-31T12:30:01.172Z,40.3
2018-08-31T12:31:11.116Z,40.6
2018-08-31T12:32:09.974Z,40.8
2018-08-31T12:33:07.782Z,40.4
2018-08-31T12:34:09.456Z,39.5
2018-08-31T12:35:11.408Z,40.5
2018-08-31T12:36:13.323Z,40.8
2018-08-31T12:37:15.189Z,39.5
2018-08-31T12:38:12.564Z,39.4
2018-08-31T12:39:10.382Z,39.5
2018-08-31T12:40:10.420Z,39.5
2018-08-31T12:41:10.185Z,39.5
2018-08-31T12:42:26.738Z,39.5
2018-08-31T12:43:23.788Z,39.5
2018-08-31T12:44:31.424Z,38.8
2018-08-31T12:45:29.862Z,39.5
2018-08-31T12:46:31.171Z,39
2018-08-31T12:47:29.783Z,38.9
2018-08-31T12:48:29.925Z,39.5
2018-08-31T12:49:26.384Z,39.4
2018-08-31T12:50:27.997Z,39.5
2018-08-31T12:51:24.609Z,39.5
2018-08-31T12:52:26.654Z,39.6
2018-08-31T12:53:40.911Z,39.9
2018-08-31T12:54:35.603Z,40.4
2018-08-31T12:55:33.463Z,40.7
2018-08-31T12:56:31.927Z,40.8
2018-08-31T12:57:32.783Z,41
2018-08-31T12:58:31.046Z,41
2018-08-31T12:58:44.635Z,41
2018-08-31T12:59:43.721Z,41
2018-08-31T13:00:41.813Z,40.8
2018-08-31T13:01:39.611Z,40.7
2018-08-31T13:02:39.432Z,40.9
2018-08-31T13:03:44.696Z,41
2018-08-31T13:04:40.052Z,41.3
2018-08-31T13:05:53.601Z,40.7
2018-08-31T13:06:50.728Z,40.5
2018-08-31T13:07:50.783Z,40.3
2018-08-31T13:08:50.753Z,40.6
2018-08-31T13:09:48.199Z,39.6
2018-08-31T13:10:46.468Z,39.3
2018-08-31T13:11:44.675Z,39.3
2018-08-31T13:12:45.973Z,39.8
2018-08-31T13:13:47.164Z,39.2
2018-08-31T13:14:49.868Z,39.1
2018-08-31T13:16:02.593Z,39.2
2018-08-31T13:16:58.784Z,39.2
2018-08-31T13:17:57.027Z,39.1
2018-08-31T13:18:56.549Z,39.2
2018-08-31T13:19:56.364Z,39.6
2018-08-31T13:20:54.632Z,39.3
2018-08-31T13:21:53.836Z,39.5
2018-08-31T13:22:53.328Z,39.4
2018-08-31T13:23:54.520Z,39.6
2018-08-31T13:24:52.384Z,39.9
2018-08-31T13:25:51.671Z,39.2
2018-08-31T13:27:05.454Z,39.1
2018-08-31T13:27:59.782Z,39.1
2018-08-31T13:28:59.234Z,39.4
2018-08-31T13:29:58.236Z,39.4
2018-08-31T13:30:58.747Z,39.5
2018-08-31T13:31:56.333Z,38.9
2018-08-31T13:32:54.057Z,38.9
2018-08-31T13:33:53.588Z,38.9
2018-08-31T13:34:51.844Z,38.9
2018-08-31T13:35:51.364Z,38.8
2018-08-31T13:36:49.049Z,38.9
2018-08-31T13:38:00.998Z,38.2
2018-08-31T13:38:56.096Z,38